createdAt,value
2022-12-23T00:00:25.121Z,100147.09
2022-12-23T00:02:53.859Z,100136.19
2022-12-23T00:05:24.044Z,100134.16
2022-12-23T00:07:52.728Z,100128.69
2022-12-23T00:10:22.152Z,100127.53
2022-12-23T00:13:08.225Z,100131.69
2022-12-23T00:15:37.055Z,100127.66
2022-12-23T00:18:05.619Z,100122.09
2022-12-23T00:20:35.565Z,100116.59
2022-12-23T00:23:09.126Z,100119.00
2022-12-23T00:25:44.741Z,100101.22
2022-12-23T00:28:15.548Z,100104.75
2022-12-23T00:30:48.918Z,100104.94
2022-12-23T00:33:18.976Z,100093.00
2022-12-23T00:35:50.101Z,100088.97
2022-12-23T00:38:40.574Z,100075.97
2022-12-23T00:41:29.793Z,100069.88
2022-12-23T00:43:59.327Z,100068.69
2022-12-23T00:46:27.911Z,100067.00
2022-12-23T00:49:13.895Z,100068.78
2022-12-23T00:51:44.121Z,100071.25
2022-12-23T00:54:13.819Z,100065.00
2022-12-23T00:56:42.521Z,100058.63
2022-12-23T00:59:12.094Z,100057.50
2022-12-23T01:01:58.151Z,100067.25
2022-12-23T01:04:41.233Z,100073.13
2022-12-23T01:07:11.633Z,100064.59
2022-12-23T01:09:40.234Z,100055.31
2022-12-23T01:12:09.116Z,100061.59
2022-12-23T01:14:38.229Z,100056.63
2022-12-23T01:17:08.561Z,100059.44
2022-12-23T01:19:37.509Z,100046.22
2022-12-23T01:22:05.975Z,100047.34
2022-12-23T01:24:35.800Z,100032.56
2022-12-23T01:27:04.445Z,100038.84
2022-12-23T01:29:33.139Z,100028.78
2022-12-23T01:32:01.979Z,100028.69
2022-12-23T01:34:36.299Z,100031.31
2022-12-23T01:37:06.269Z,100021.78
2022-12-23T01:39:36.547Z,100016.41
2022-12-23T01:42:22.418Z,99993.28
2022-12-23T01:44:55.220Z,99998.44
2022-12-23T01:47:31.764Z,99981.59
2022-12-23T01:50:08.482Z,99977.44
2022-12-23T01:52:44.767Z,99978.28
2022-12-23T01:55:17.400Z,99977.25
2022-12-23T01:57:47.654Z,99966.44
2022-12-23T02:00:34.430Z,99962.56
2022-12-23T02:03:20.626Z,99964.72
2022-12-23T02:05:49.812Z,99963.16
2022-12-23T02:08:37.244Z,99959.84
2022-12-23T02:11:32.070Z,99963.16
2022-12-23T02:14:32.128Z,99956.66
2022-12-23T02:17:10.069Z,99943.75
2022-12-23T02:20:11.952Z,99946.72
2022-12-23T02:23:01.343Z,99947.25
2022-12-23T02:25:53.185Z,99938.88
2022-12-23T02:28:50.835Z,99941.75
2022-12-23T02:31:30.671Z,99933.78
2022-12-23T02:34:03.966Z,99933.94
2022-12-23T02:36:40.538Z,99921.97
2022-12-23T02:39:11.953Z,99919.88
2022-12-23T02:41:49.950Z,99912.44
2022-12-23T02:44:31.036Z,99907.66
2022-12-23T02:47:11.858Z,99899.63
2022-12-23T02:49:44.645Z,99894.69
2022-12-23T02:52:15.513Z,99899.16
2022-12-23T02:54:50.433Z,99895.69
2022-12-23T02:57:22.734Z,99891.88
2022-12-23T02:59:53.600Z,99894.13
2022-12-23T03:02:24.542Z,99890.50
2022-12-23T03:04:53.237Z,99897.38
2022-12-23T03:07:25.371Z,99888.41
2022-12-23T03:10:03.784Z,99892.75
2022-12-23T03:12:42.318Z,99883.09
2022-12-23T03:15:33.573Z,99888.41
2022-12-23T03:18:09.087Z,99882.78
2022-12-23T03:20:46.331Z,99886.97
2022-12-23T03:23:21.891Z,99874.09
2022-12-23T03:25:59.005Z,99860.09
2022-12-23T03:28:34.946Z,99863.00
2022-12-23T03:31:05.455Z,99863.34
2022-12-23T03:33:38.858Z,99861.63
2022-12-23T03:36:14.331Z,99860.53
2022-12-23T03:38:46.339Z,99867.53
2022-12-23T03:41:19.330Z,99873.47
2022-12-23T03:43:52.896Z,99876.13
2022-12-23T03:46:29.203Z,99873.94
2022-12-23T03:49:04.786Z,99865.09
2022-12-23T03:51:38.115Z,99859.81
2022-12-23T03:54:11.354Z,99853.38
2022-12-23T03:56:44.504Z,99854.81
2022-12-23T03:59:18.052Z,99848.97
2022-12-23T04:01:57.021Z,99846.59
2022-12-23T04:04:32.012Z,99842.59
2022-12-23T04:07:06.194Z,99839.63
2022-12-23T04:09:38.146Z,99835.63
2022-12-23T04:12:09.028Z,99854.06
2022-12-23T04:14:39.206Z,99841.16
2022-12-23T04:17:07.664Z,99847.44
2022-12-23T04:19:37.424Z,99841.41
2022-12-23T04:22:05.943Z,99847.63
2022-12-23T04:24:34.495Z,99843.03
2022-12-23T04:27:03.181Z,99826.84
2022-12-23T04:29:32.723Z,99829.63
2022-12-23T04:32:01.252Z,99843.66
2022-12-23T04:34:29.765Z,99829.03
2022-12-23T04:36:59.725Z,99824.53
2022-12-23T04:39:29.402Z,99834.81
2022-12-23T04:41:58.705Z,99831.84
2022-12-23T04:44:27.334Z,99827.09
2022-12-23T04:46:56.375Z,99826.19
2022-12-23T04:49:25.072Z,99824.50
2022-12-23T04:51:53.536Z,99836.91
2022-12-23T04:54:23.676Z,99839.47
2022-12-23T04:56:52.276Z,99839.22
2022-12-23T04:59:20.855Z,99852.22
2022-12-23T05:01:49.772Z,99850.16
2022-12-23T05:04:18.487Z,99851.19
2022-12-23T05:06:46.984Z,99845.50
2022-12-23T05:09:15.529Z,99849.06
2022-12-23T05:11:46.701Z,99854.75
2022-12-23T05:14:15.310Z,99855.19
2022-12-23T05:16:43.990Z,99854.59
2022-12-23T05:19:12.791Z,99847.44
2022-12-23T05:21:41.272Z,99848.66
2022-12-23T05:24:10.196Z,99846.59
2022-12-23T05:26:38.862Z,99847.97
2022-12-23T05:29:08.966Z,99846.75
2022-12-23T05:31:37.888Z,99855.13
2022-12-23T05:34:07.022Z,99859.00
2022-12-23T05:36:35.861Z,99855.09
2022-12-23T05:39:04.714Z,99855.41
2022-12-23T05:41:33.585Z,99852.00
2022-12-23T05:44:02.156Z,99861.63
2022-12-23T05:46:33.530Z,99857.94
2022-12-23T05:49:03.350Z,99862.72
2022-12-23T05:51:32.056Z,99870.72
2022-12-23T05:54:01.026Z,99868.16
2022-12-23T05:56:29.452Z,99871.81
2022-12-23T05:58:58.778Z,99867.44
2022-12-23T06:01:27.310Z,99872.38
2022-12-23T06:03:57.536Z,99873.75
2022-12-23T06:06:26.140Z,99864.94
2022-12-23T06:08:59.586Z,99869.09
2022-12-23T06:11:28.979Z,99863.06
2022-12-23T06:13:58.342Z,99858.31
2022-12-23T06:16:26.958Z,99853.31
2022-12-23T06:18:57.538Z,99853.31
2022-12-23T06:21:26.898Z,99846.78
2022-12-23T06:23:55.537Z,99863.31
2022-12-23T06:26:24.051Z,99863.03
2022-12-23T06:28:52.861Z,99873.56
2022-12-23T06:31:21.706Z,99870.34
2022-12-23T06:33:50.430Z,99881.56
2022-12-23T06:36:20.407Z,99886.28
2022-12-23T06:38:48.827Z,99881.66
2022-12-23T06:41:17.493Z,99888.25
2022-12-23T06:43:49.950Z,99896.31
2022-12-23T06:46:22.692Z,99902.53
2022-12-23T06:48:51.377Z,99903.94
2022-12-23T06:51:21.741Z,99905.03
2022-12-23T06:53:50.363Z,99908.00
2022-12-23T06:56:19.877Z,99918.81
2022-12-23T06:58:48.618Z,99926.88
2022-12-23T07:01:17.303Z,99927.06
2022-12-23T07:03:46.068Z,99929.13
2022-12-23T07:06:15.609Z,99935.03
2022-12-23T07:08:45.780Z,99933.34
2022-12-23T07:11:14.650Z,99946.84
2022-12-23T07:13:43.228Z,99935.97
2022-12-23T07:16:11.846Z,99934.22
2022-12-23T07:18:40.449Z,99942.16
2022-12-23T07:21:19.735Z,99937.88
2022-12-23T07:23:54.893Z,99939.41
2022-12-23T07:26:23.398Z,99940.97
2022-12-23T07:28:51.863Z,99938.75
2022-12-23T07:31:20.545Z,99933.13
2022-12-23T07:33:49.084Z,99939.16
2022-12-23T07:36:18.787Z,99929.59
2022-12-23T07:38:50.802Z,99933.47
2022-12-23T07:41:21.088Z,99932.53
2022-12-23T07:43:49.736Z,99928.75
2022-12-23T07:46:18.256Z,99930.63
2022-12-23T07:48:46.630Z,99923.34
2022-12-23T07:51:15.170Z,99927.91
2022-12-23T07:53:43.743Z,99927.69
2022-12-23T07:56:12.315Z,99923.34
2022-12-23T07:58:42.578Z,99923.00
2022-12-23T08:01:12.586Z,99922.09
2022-12-23T08:03:41.249Z,99926.25
2022-12-23T08:06:12.766Z,99922.38
2022-12-23T08:08:43.431Z,99921.16
2022-12-23T08:11:14.507Z,99917.75
2022-12-23T08:13:46.254Z,99912.06
2022-12-23T08:16:14.783Z,99913.56
2022-12-23T08:18:45.264Z,99922.88
2022-12-23T08:21:15.979Z,99926.72
2022-12-23T08:23:44.781Z,99937.75
2022-12-23T08:26:15.368Z,99943.41
2022-12-23T08:28:46.382Z,99943.88
2022-12-23T08:31:17.170Z,99946.28
2022-12-23T08:33:47.849Z,99950.88
2022-12-23T08:36:22.702Z,99957.09
2022-12-23T08:38:56.533Z,99956.84
2022-12-23T08:41:26.894Z,99961.63
2022-12-23T08:44:01.132Z,99964.25
2022-12-23T08:46:30.537Z,99961.28
2022-12-23T08:48:59.566Z,99973.25
2022-12-23T08:51:30.075Z,99994.09
2022-12-23T08:54:01.650Z,99995.84
2022-12-23T08:56:33.131Z,100011.03
2022-12-23T08:59:04.195Z,100018.69
2022-12-23T09:01:34.787Z,100024.47
2022-12-23T09:04:04.866Z,100028.81
2022-12-23T09:06:36.147Z,100026.59
2022-12-23T09:09:05.554Z,100027.34
2022-12-23T09:11:35.487Z,100038.00
2022-12-23T09:14:07.066Z,100036.13
2022-12-23T09:16:36.223Z,100033.47
2022-12-23T09:19:06.084Z,100037.63
2022-12-23T09:21:34.744Z,100035.44
2022-12-23T09:24:03.348Z,100036.63
2022-12-23T09:26:32.744Z,100046.06
2022-12-23T09:29:01.262Z,100059.59
2022-12-23T09:31:36.865Z,100052.78
2022-12-23T09:34:07.914Z,100071.66
2022-12-23T09:36:36.367Z,100067.66
2022-12-23T09:39:05.637Z,100083.22
2022-12-23T09:42:01.552Z,100092.06
2022-12-23T09:44:44.515Z,100095.63
2022-12-23T09:47:19.564Z,100089.50
2022-12-23T09:49:52.951Z,100099.41
2022-12-23T09:52:26.842Z,100103.81
2022-12-23T09:54:57.105Z,100121.13
2022-12-23T09:57:35.385Z,100125.00
2022-12-23T10:00:12.889Z,100132.38
2022-12-23T10:02:58.091Z,100136.31
2022-12-23T10:05:35.416Z,100144.13
2022-12-23T10:08:09.018Z,100134.09
2022-12-23T10:10:42.340Z,100139.47
2022-12-23T10:13:20.546Z,100134.78
2022-12-23T10:15:50.342Z,100144.50
2022-12-23T10:18:26.546Z,100146.00
2022-12-23T10:21:00.538Z,100155.03
2022-12-23T10:23:34.401Z,100147.53
2022-12-23T10:26:08.961Z,100141.84
2022-12-23T10:28:37.612Z,100149.41
2022-12-23T10:34:09.820Z,100144.56
2022-12-23T10:36:47.302Z,100134.78
2022-12-23T10:39:25.639Z,100118.09
2022-12-23T10:42:05.451Z,100122.69
2022-12-23T10:44:50.770Z,100123.88
2022-12-23T10:47:38.619Z,100116.09
2022-12-23T10:50:35.728Z,100113.56
2022-12-23T10:53:11.925Z,100115.25
2022-12-23T10:55:41.009Z,100105.50
2022-12-23T10:58:16.317Z,100110.22
2022-12-23T11:00:50.979Z,100107.91
2022-12-23T11:03:23.478Z,100107.84
2022-12-23T11:05:54.779Z,100106.47
2022-12-23T11:11:08.196Z,100119.94
2022-12-23T11:13:39.901Z,100110.56
2022-12-23T11:16:22.661Z,100117.81
2022-12-23T11:18:57.264Z,100115.19
2022-12-23T11:21:27.599Z,100107.88
2022-12-23T11:24:18.490Z,100107.88
2022-12-23T11:26:50.673Z,100107.00
2022-12-23T11:29:24.552Z,100108.88
2022-12-23T11:31:53.681Z,100115.50
2022-12-23T11:34:25.166Z,100104.66
2022-12-23T11:37:01.799Z,100102.34
2022-12-23T11:39:35.671Z,100102.78
2022-12-23T11:42:13.253Z,100110.78
2022-12-23T11:44:44.256Z,100122.09
2022-12-23T11:47:25.629Z,100126.69
2022-12-23T11:49:56.840Z,100121.50
2022-12-23T11:52:29.025Z,100119.97
2022-12-23T11:55:01.522Z,100113.59
2022-12-23T11:57:40.451Z,100121.41
2022-12-23T12:00:20.880Z,100116.84
2022-12-23T12:02:52.798Z,100127.78
2022-12-23T12:05:26.973Z,100136.91
2022-12-23T12:08:01.330Z,100139.69
2022-12-23T12:10:33.489Z,100132.03
2022-12-23T12:13:05.292Z,100131.69
2022-12-23T12:15:43.439Z,100120.47
2022-12-23T12:18:18.310Z,100123.69
2022-12-23T12:20:52.158Z,100119.88
2022-12-23T12:23:28.705Z,100117.59
2022-12-23T12:26:02.675Z,100120.56
2022-12-23T12:28:36.237Z,100133.44
2022-12-23T12:31:15.088Z,100138.25
2022-12-23T12:33:52.310Z,100144.13
2022-12-23T12:36:33.053Z,100139.53
2022-12-23T12:39:02.997Z,100150.78
2022-12-23T12:41:38.163Z,100155.81
2022-12-23T12:44:24.433Z,100154.34
2022-12-23T12:46:57.796Z,100156.41
2022-12-23T12:49:34.143Z,100160.56
2022-12-23T12:52:09.001Z,100156.41
2022-12-23T12:54:44.256Z,100159.19
2022-12-23T12:57:17.676Z,100169.84
2022-12-23T12:59:49.662Z,100170.88
2022-12-23T13:02:45.819Z,100169.84
2022-12-23T13:05:30.372Z,100160.88
2022-12-23T13:08:18.547Z,100147.50
2022-12-23T13:10:56.925Z,100141.72
2022-12-23T13:13:39.617Z,100143.41
2022-12-23T13:16:15.451Z,100145.50
2022-12-23T13:18:51.757Z,100146.50
2022-12-23T13:21:25.514Z,100143.47
2022-12-23T13:24:06.189Z,100150.59
2022-12-23T13:26:39.216Z,100150.94
2022-12-23T13:29:34.133Z,100163.22
2022-12-23T13:32:09.500Z,100163.03
2022-12-23T13:34:52.536Z,100156.41
2022-12-23T13:37:32.381Z,100160.97
2022-12-23T13:40:14.302Z,100166.63
2022-12-23T13:42:50.373Z,100161.94
2022-12-23T13:45:20.387Z,100154.00
2022-12-23T13:48:04.773Z,100142.63
2022-12-23T13:50:39.706Z,100139.72
2022-12-23T13:53:17.282Z,100136.47
2022-12-23T13:55:58.002Z,100138.59
2022-12-23T13:58:31.291Z,100148.66
2022-12-23T14:01:21.129Z,100140.22
2022-12-23T14:03:50.886Z,100129.66
2022-12-23T14:06:44.531Z,100126.78
2022-12-23T14:09:16.513Z,100122.50
2022-12-23T14:11:49.291Z,100137.41
2022-12-23T14:14:24.822Z,100135.13
2022-12-23T14:17:10.140Z,100126.78
2022-12-23T14:19:56.520Z,100115.38
2022-12-23T14:22:41.131Z,100110.97
2022-12-23T14:25:48.306Z,100121.16
2022-12-23T14:28:35.900Z,100126.94
2022-12-23T14:31:28.254Z,100127.94
2022-12-23T14:34:04.524Z,100123.19
2022-12-23T14:36:33.206Z,100114.81
2022-12-23T14:39:33.298Z,100111.44
2022-12-23T14:42:05.966Z,100108.63
2022-12-23T14:44:52.881Z,100110.56
2022-12-23T14:47:40.357Z,100106.00
2022-12-23T14:50:41.803Z,100115.00
2022-12-23T14:53:24.145Z,100102.16
2022-12-23T14:56:08.849Z,100118.03
2022-12-23T14:59:01.978Z,100117.28
2022-12-23T15:01:36.329Z,100123.03
2022-12-23T15:04:19.749Z,100124.09
2022-12-23T15:06:51.112Z,100128.59
2022-12-23T15:09:26.298Z,100134.66
2022-12-23T15:11:57.227Z,100133.69
2022-12-23T15:14:32.642Z,100138.34
2022-12-23T15:17:02.375Z,100139.97
2022-12-23T15:19:34.140Z,100138.22
2022-12-23T15:22:20.624Z,100141.28
2022-12-23T15:24:51.020Z,100143.16
2022-12-23T15:27:30.280Z,100137.00
2022-12-23T15:30:05.626Z,100129.44
2022-12-23T15:32:36.830Z,100128.50
2022-12-23T15:35:08.941Z,100125.31
2022-12-23T15:37:42.690Z,100118.81
2022-12-23T15:40:25.881Z,100124.38
2022-12-23T15:42:55.180Z,100120.03
2022-12-23T15:45:35.492Z,100126.06
2022-12-23T15:48:06.376Z,100126.28
2022-12-23T15:50:42.246Z,100129.91
2022-12-23T15:53:11.528Z,100141.09
2022-12-23T15:55:41.991Z,100143.75
2022-12-23T15:58:20.105Z,100140.81
2022-12-23T16:00:57.622Z,100130.75
2022-12-23T16:03:31.397Z,100130.75
2022-12-23T16:06:11.225Z,100134.78
2022-12-23T16:08:40.124Z,100127.22
2022-12-23T16:11:15.799Z,100121.84
2022-12-23T16:13:58.860Z,100124.22
2022-12-23T16:16:40.240Z,100126.91
2022-12-23T16:19:40.136Z,100108.94
2022-12-23T16:22:18.733Z,100128.31
2022-12-23T16:24:50.264Z,100135.44
2022-12-23T16:27:34.765Z,100135.19
2022-12-23T16:30:05.255Z,100136.38
2022-12-23T16:32:45.818Z,100130.31
2022-12-23T16:35:28.490Z,100137.28
2022-12-23T16:38:11.172Z,100145.72
2022-12-23T16:40:40.962Z,100150.16
2022-12-23T16:43:11.154Z,100138.13
2022-12-23T16:45:41.995Z,100131.84
2022-12-23T16:48:27.054Z,100142.06
2022-12-23T16:51:00.648Z,100141.63
2022-12-23T16:53:30.710Z,100140.47
2022-12-23T16:56:12.103Z,100134.81
2022-12-23T16:58:41.147Z,100120.41
2022-12-23T17:01:16.685Z,100131.41
2022-12-23T17:03:46.948Z,100126.09
2022-12-23T17:06:18.110Z,100127.00
2022-12-23T17:08:50.749Z,100136.97
2022-12-23T17:11:26.228Z,100142.75
2022-12-23T17:13:59.756Z,100144.94
2022-12-23T17:16:32.612Z,100142.78
2022-12-23T17:19:01.360Z,100136.84
2022-12-23T17:21:32.647Z,100130.63
2022-12-23T17:24:06.123Z,100125.34
2022-12-23T17:26:35.828Z,100112.38
2022-12-23T17:29:05.361Z,100106.09
2022-12-23T17:31:34.714Z,100106.47
2022-12-23T17:34:03.505Z,100106.34
2022-12-23T17:36:32.505Z,100098.56
2022-12-23T17:39:02.920Z,100096.09
2022-12-23T17:41:35.692Z,100098.50
2022-12-23T17:44:21.404Z,100086.97
2022-12-23T17:46:49.972Z,100082.09
2022-12-23T17:49:19.781Z,100086.34
2022-12-23T17:51:48.341Z,100085.56
2022-12-23T17:54:26.482Z,100089.16
2022-12-23T17:56:55.197Z,100091.38
2022-12-23T17:59:23.874Z,100096.72
2022-12-23T18:01:52.642Z,100099.97
2022-12-23T18:04:21.598Z,100095.31
2022-12-23T18:06:52.185Z,100082.25
2022-12-23T18:09:25.235Z,100087.56
2022-12-23T18:11:54.953Z,100082.78
2022-12-23T18:14:28.806Z,100083.13
2022-12-23T18:16:58.487Z,100074.44
2022-12-23T18:19:29.308Z,100084.25
2022-12-23T18:21:59.113Z,100084.44
2022-12-23T18:24:30.213Z,100082.56
2022-12-23T18:26:59.928Z,100075.81
2022-12-23T18:29:28.703Z,100077.97
2022-12-23T18:32:03.909Z,100077.78
2022-12-23T18:34:32.764Z,100067.63
2022-12-23T18:37:01.419Z,100079.16
2022-12-23T18:39:31.413Z,100074.19
2022-12-23T18:42:00.097Z,100076.13
2022-12-23T18:44:29.426Z,100061.34
2022-12-23T18:46:57.980Z,100052.63
2022-12-23T18:49:26.976Z,100052.97
2022-12-23T18:51:55.567Z,100056.03
2022-12-23T18:54:23.944Z,100049.56
2022-12-23T18:56:54.058Z,100040.41
2022-12-23T18:59:30.067Z,100030.31
2022-12-23T19:01:59.136Z,100029.25
2022-12-23T19:04:28.640Z,100033.13
2022-12-23T19:06:59.931Z,100028.16
2022-12-23T19:09:28.499Z,100033.97
2022-12-23T19:11:58.844Z,100035.34
2022-12-23T19:14:27.393Z,100026.97
2022-12-23T19:16:56.166Z,100021.94
2022-12-23T19:19:24.837Z,100021.81
2022-12-23T19:21:53.395Z,100024.63
2022-12-23T19:24:22.050Z,100032.19
2022-12-23T19:26:50.615Z,100032.56
2022-12-23T19:29:20.524Z,100032.19
2022-12-23T19:31:50.191Z,100043.34
2022-12-23T19:34:18.728Z,100038.50
2022-12-23T19:36:48.338Z,100032.41
2022-12-23T19:39:21.870Z,100032.56
2022-12-23T19:41:50.401Z,100035.22
2022-12-23T19:44:24.388Z,100035.75
2022-12-23T19:46:52.874Z,100025.66
2022-12-23T19:49:21.615Z,100025.59
2022-12-23T19:51:50.433Z,100025.53
2022-12-23T19:54:19.898Z,100026.59
2022-12-23T19:56:51.592Z,100021.34
2022-12-23T19:59:23.268Z,100029.25
2022-12-23T20:01:51.771Z,100039.06
2022-12-23T20:04:23.930Z,100037.75
2022-12-23T20:06:53.124Z,100032.66
2022-12-23T20:09:24.111Z,100038.81
2022-12-23T20:11:53.215Z,100036.06
2022-12-23T20:14:27.717Z,100032.94
2022-12-23T20:16:59.824Z,100031.16
2022-12-23T20:19:28.623Z,100028.41
2022-12-23T20:21:57.178Z,100033.34
2022-12-23T20:24:25.769Z,100041.84
2022-12-23T20:26:54.212Z,100034.91
2022-12-23T20:29:24.340Z,100039.47
2022-12-23T20:31:52.965Z,100044.88
2022-12-23T20:34:21.859Z,100040.22
2022-12-23T20:36:50.590Z,100040.06
2022-12-23T20:39:19.101Z,100035.81
2022-12-23T20:41:47.826Z,100047.81
2022-12-23T20:47:06.860Z,100037.31
2022-12-23T20:49:35.627Z,100035.88
2022-12-23T20:52:04.283Z,100031.34
2022-12-23T20:54:34.005Z,100019.97
2022-12-23T20:57:04.165Z,100020.09
2022-12-23T20:59:33.691Z,100016.41
2022-12-23T21:02:11.208Z,100011.16
2022-12-23T21:04:44.344Z,100016.72
2022-12-23T21:07:13.301Z,100013.63
2022-12-23T21:09:41.773Z,100012.84
2022-12-23T21:12:10.717Z,100017.88
2022-12-23T21:14:40.513Z,100020.63
2022-12-23T21:17:10.637Z,100021.34
2022-12-23T21:19:39.291Z,100018.28
2022-12-23T21:22:08.421Z,100018.41
2022-12-23T21:24:36.915Z,100010.75
2022-12-23T21:27:05.616Z,100023.91
2022-12-23T21:29:34.983Z,100017.03
2022-12-23T21:32:04.609Z,100020.13
2022-12-23T21:34:34.673Z,100024.13
2022-12-23T21:37:03.527Z,100021.59
2022-12-23T21:39:32.243Z,100028.25
2022-12-23T21:42:01.847Z,100036.19
2022-12-23T21:44:30.339Z,100031.66
2022-12-23T21:46:58.960Z,100048.28
2022-12-23T21:49:27.667Z,100050.41
2022-12-23T21:51:57.904Z,100052.22
2022-12-23T21:54:26.625Z,100057.72
2022-12-23T21:56:57.609Z,100058.94
2022-12-23T21:59:34.522Z,100055.63
2022-12-23T22:02:04.626Z,100065.91
2022-12-23T22:04:33.203Z,100063.13
2022-12-23T22:07:03.402Z,100065.97
2022-12-23T22:09:33.053Z,100067.69
2022-12-23T22:12:01.687Z,100067.63
2022-12-23T22:14:30.377Z,100064.38
2022-12-23T22:17:00.040Z,100063.59
2022-12-23T22:19:28.744Z,100067.03
2022-12-23T22:21:57.324Z,100057.41
2022-12-23T22:24:27.515Z,100056.69
2022-12-23T22:26:57.206Z,100056.84
2022-12-23T22:29:26.043Z,100065.88
2022-12-23T22:31:55.591Z,100047.47
2022-12-23T22:34:24.820Z,100053.28
2022-12-23T22:36:53.421Z,100056.97
2022-12-23T22:39:23.032Z,100049.31
2022-12-23T22:41:53.854Z,100054.56
2022-12-23T22:44:22.634Z,100057.38
2022-12-23T22:46:51.786Z,100054.13
2022-12-23T22:49:20.647Z,100057.59
2022-12-23T22:51:49.097Z,100063.19
2022-12-23T22:54:17.667Z,100068.44
2022-12-23T22:56:49.346Z,100075.22
2022-12-23T22:59:31.393Z,100074.81
2022-12-23T23:02:00.065Z,100074.38
2022-12-23T23:04:28.699Z,100077.78
2022-12-23T23:06:57.138Z,100078.22
2022-12-23T23:09:27.297Z,100080.31
2022-12-23T23:11:56.474Z,100074.66
2022-12-23T23:14:26.751Z,100085.16
2022-12-23T23:16:56.219Z,100075.81
2022-12-23T23:19:24.924Z,100075.94
2022-12-23T23:21:54.635Z,100076.34
2022-12-23T23:24:29.342Z,100074.50
2022-12-23T23:26:59.763Z,100071.09
2022-12-23T23:29:30.566Z,100074.66
2022-12-23T23:31:59.232Z,100083.16
2022-12-23T23:34:29.230Z,100079.28
2022-12-23T23:36:58.690Z,100079.56
2022-12-23T23:39:27.968Z,100073.81
2022-12-23T23:41:56.623Z,100083.59
2022-12-23T23:44:25.154Z,100081.19
2022-12-23T23:46:56.387Z,100087.78
2022-12-23T23:49:25.077Z,100083.75
2022-12-23T23:51:55.025Z,100088.72
2022-12-23T23:54:23.669Z,100099.25
2022-12-23T23:56:52.268Z,100104.50
2022-12-23T23:59:20.872Z,100103.34
